Group: BABAS

Releases: 86.885 · Total size: 10,10 TB

First: 2020-06-30 · Last: 2026-07-05

By section: MP3/FLAC 86.885 (10,10 TB)

Release Section Group Size Files Date ↓
Korben_Nice--We_All-(SIMC0036)-WEB-2018-BABAS MP3/FLAC BABAS 75,77 MB 9 2022-08-20
Kumasi_The_DJ--Avoid_Interference-(SIMC0075)-WEB-2022-BABAS MP3/FLAC BABAS 40,17 MB 7 2022-08-20
Kumasi_The_DJ--Short_String_Of_Memory-(SIMC0054)-WEB-2020-BABAS MP3/FLAC BABAS 80,05 MB 10 2022-08-20
Martu--Fallen_Light-(SIMC0028)-WEB-2017-BABAS MP3/FLAC BABAS 96,17 MB 10 2022-08-20
Mc94--The_Wall_Felt_Down-(SIMC0059)-WEB-2020-BABAS MP3/FLAC BABAS 57,52 MB 8 2022-08-20
Kyntral--Body_Spirit_EP-(NTCDG01)-WEB-2019-BABAS MP3/FLAC BABAS 49,78 MB 8 2022-08-20
Miguama--Codigo_Zen-(SIMC0045)-WEB-2019-BABAS MP3/FLAC BABAS 85,07 MB 10 2022-08-20
MVRPH--Inner_Search-(SIMC0070)-WEB-2021-BABAS MP3/FLAC BABAS 77,85 MB 10 2022-08-20
New_Town_Ground--Violent_Circles-(SDR10)-WEB-2022-BABAS MP3/FLAC BABAS 87,35 MB 11 2022-08-20
Paulitical--Rebel_Without_A_Clue-WEB-2022-BABAS MP3/FLAC BABAS 69,03 MB 9 2022-08-20
Sathurnus--A_Strange_Experiment-(SIMC0066)-WEB-2021-BABAS MP3/FLAC BABAS 70,05 MB 9 2022-08-20
Sewei--I_N_W_S_L_T-(NTCDG06)-WEB-2019-BABAS MP3/FLAC BABAS 80,39 MB 8 2022-08-20
Soulless--Self_Hatred-(HOFRNCTX001)-WEB-2021-BABAS MP3/FLAC BABAS 89,80 MB 11 2022-08-20
Ulnar_Dimelia--Neural_Maintenance-(SIMC0050)-WEB-2020-BABAS MP3/FLAC BABAS 73,70 MB 9 2022-08-20
VA-Aedi_Records_IV-(AEDI004)-WEB-2022-BABAS MP3/FLAC BABAS 83,35 MB 10 2022-08-20
VA-Encoding_2-(SIMC0034)-WEB-2018-BABAS MP3/FLAC BABAS 60,76 MB 8 2022-08-20
VA-Encoding_3-(SIMC0041)-WEB-2019-BABAS MP3/FLAC BABAS 108,01 MB 12 2022-08-20
VA-Great_Remixes_Vol_3-(SIMC0062)-WEB-2020-BABAS MP3/FLAC BABAS 192,50 MB 18 2022-08-20
VA-Phalanx_Pt_1-WEB-2019-BABAS MP3/FLAC BABAS 46,30 MB 8 2022-08-20
VA-Solemne_Records_VA_1-(SR003)-WEB-2018-BABAS MP3/FLAC BABAS 127,29 MB 12 2022-08-20
VA-Solemne_Records_VA_2-(SR005)-WEB-2019-BABAS MP3/FLAC BABAS 180,18 MB 17 2022-08-20
Vayu--Namtar-(HNL015)-WEB-2022-BABAS MP3/FLAC BABAS 57,66 MB 10 2022-08-20
VA-Various_Artists_3-1St_Anniversary_Of_Solemne_Records-(SR008)-WEB-2019-BABAS MP3/FLAC BABAS 481,16 MB 37 2022-08-20
VA-Great_Remixes_Vol_2-(SIMC0047)-WEB-2019-BABAS MP3/FLAC BABAS 278,66 MB 23 2022-08-20
Hoki--Crash-(TYP009)-WEB-2020-BABAS MP3/FLAC BABAS 40,48 MB 8 2022-08-19
Hoki--Strangest_Of_Us_All-(TYP005)-WEB-2019-BABAS MP3/FLAC BABAS 119,36 MB 15 2022-08-19
Hoki--The_Walls_Can_Talk-(TYP010)-WEB-2020-BABAS MP3/FLAC BABAS 103,79 MB 12 2022-08-19
Hoki--Today-(TYP011)-WEB-2020-BABAS MP3/FLAC BABAS 97,37 MB 15 2022-08-19
VA-Yggdrasounds_III-(YGGCD006)-WEB-2022-BABAS MP3/FLAC BABAS 170,51 MB 13 2022-08-19
Kolosmo--Life_Unfolding-(54)-WEB-2022-BABAS MP3/FLAC BABAS 73,02 MB 8 2022-08-19
ModelFluxX--Wavtransformer-(OVNIEP507)-WEB-2022-BABAS MP3/FLAC BABAS 66,98 MB 8 2022-08-19
Nomad_Aliens--Voyager_Planetary-WEB-2022-BABAS MP3/FLAC BABAS 33,59 MB 6 2022-08-19
Psydewise--Mandelbrot_Sequence-(55)-WEB-2022-BABAS MP3/FLAC BABAS 76,31 MB 9 2022-08-19
VA-Higher_Power-(PTL0053B)-WEB-2022-BABAS MP3/FLAC BABAS 173,15 MB 14 2022-08-19
VA-Ancient_Masters_(Compiled_by_X-Side)-(QS026)-WEB-2022-BABAS MP3/FLAC BABAS 152,57 MB 13 2022-08-19
VA-Goa_Vol_78_(Compiled_by_Psykinetic)-(YSEDCD025)-WEB-2022-BABAS MP3/FLAC BABAS 324,24 MB 22 2022-08-19
VA-Heart_Of_Trance_(A_Tribute_To_Eyal_Yankovich)-(HMD185)-WEB-2022-BABAS MP3/FLAC BABAS 221,52 MB 16 2022-08-19
Hoki--None_Of_Us_Will_Ever_Be_The_Same-(TYP027)-WEB-2021-BABAS MP3/FLAC BABAS 105,25 MB 16 2022-08-19
Hoki--Three_(Death_On_The_Balcony_Remix)-(TYP030)-WEB-2022-BABAS MP3/FLAC BABAS 12,80 MB 5 2022-08-19
Maximalism--Glimpse-(NWS011)-WEB-2018-BABAS MP3/FLAC BABAS 83,76 MB 9 2022-08-19
Yarni--Voiski-(NWS009)-WEB-2018-BABAS MP3/FLAC BABAS 76,64 MB 9 2022-08-19
VA-The_Sound_V_2_(Mixed_by_Kered)-(LOOTMIX002)-WEB-2017-BABAS MP3/FLAC BABAS 199,05 MB 16 2022-08-19
Nordfold_x_Bremer--Yano-(NWS008)-WEB-2018-BABAS MP3/FLAC BABAS 48,54 MB 7 2022-08-19
Padre--Bring_You_Back_(Luis_Leon_Re-Interpretation)-(NWS027V3)-SINGLE-WEB-2021-BABAS MP3/FLAC BABAS 13,78 MB 5 2022-08-19
Sower--Mumbles-(NWS013)-WEB-2018-BABAS MP3/FLAC BABAS 99,09 MB 10 2022-08-19
Timo_Chinala--Inversion-(NWS017V1)-WEB-2019-BABAS MP3/FLAC BABAS 65,58 MB 9 2022-08-19
VA-The_Goods_Vol_3-(LOOTREC034)-WEB-2021-BABAS MP3/FLAC BABAS 176,14 MB 15 2022-08-19
Modulo--Find_The_Truth-(NWS004)-WEB-2017-BABAS MP3/FLAC BABAS 92,53 MB 9 2022-08-19
Lucefora--Atman-(LOOTREC035)-WEB-2021-BABAS MP3/FLAC BABAS 212,57 MB 16 2022-08-19
VA-The_Sound_V_5_(Mixed_by_Kered)-(LOOTMIX005)-WEB-2020-BABAS MP3/FLAC BABAS 179,34 MB 16 2022-08-19